sensor_id;sensor_type;location;lat;lon;timestamp;P1;durP1;ratioP1;P2;durP2;ratioP2
57842;SDS011;43673;51.058;3.734;2023-06-26T00:01:41;6.32;;;3.88;;
57842;SDS011;43673;51.058;3.734;2023-06-26T00:04:16;7.97;;;4.82;;
57842;SDS011;43673;51.058;3.734;2023-06-26T00:06:48;7.80;;;4.40;;
57842;SDS011;43673;51.058;3.734;2023-06-26T00:09:17;6.13;;;4.57;;
57842;SDS011;43673;51.058;3.734;2023-06-26T00:11:58;7.93;;;4.43;;
57842;SDS011;43673;51.058;3.734;2023-06-26T00:14:29;7.50;;;4.80;;
57842;SDS011;43673;51.058;3.734;2023-06-26T00:16:55;10.00;;;5.15;;
57842;SDS011;43673;51.058;3.734;2023-06-26T00:19:28;5.95;;;4.82;;
57842;SDS011;43673;51.058;3.734;2023-06-26T00:24:58;5.70;;;4.47;;
57842;SDS011;43673;51.058;3.734;2023-06-26T00:27:24;5.75;;;4.20;;
57842;SDS011;43673;51.058;3.734;2023-06-26T00:29:52;12.30;;;5.68;;
57842;SDS011;43673;51.058;3.734;2023-06-26T00:32:18;8.30;;;5.03;;
57842;SDS011;43673;51.058;3.734;2023-06-26T00:37:56;7.38;;;4.45;;
57842;SDS011;43673;51.058;3.734;2023-06-26T00:40:21;7.32;;;4.50;;
57842;SDS011;43673;51.058;3.734;2023-06-26T00:42:49;6.35;;;4.53;;
57842;SDS011;43673;51.058;3.734;2023-06-26T00:45:24;6.90;;;4.25;;
57842;SDS011;43673;51.058;3.734;2023-06-26T00:50:33;8.45;;;4.70;;
57842;SDS011;43673;51.058;3.734;2023-06-26T00:53:16;9.02;;;4.65;;
57842;SDS011;43673;51.058;3.734;2023-06-26T00:58:33;7.95;;;4.40;;
57842;SDS011;43673;51.058;3.734;2023-06-26T01:00:59;7.38;;;4.65;;
57842;SDS011;43673;51.058;3.734;2023-06-26T01:03:26;7.88;;;5.43;;
57842;SDS011;43673;51.058;3.734;2023-06-26T01:06:00;7.57;;;4.50;;
57842;SDS011;43673;51.058;3.734;2023-06-26T01:08:56;7.15;;;4.45;;
57842;SDS011;43673;51.058;3.734;2023-06-26T01:11:33;10.40;;;4.75;;
57842;SDS011;43673;51.058;3.734;2023-06-26T01:17:01;8.65;;;4.22;;
57842;SDS011;43673;51.058;3.734;2023-06-26T01:22:23;7.43;;;4.15;;
57842;SDS011;43673;51.058;3.734;2023-06-26T01:31:58;8.25;;;4.55;;
57842;SDS011;43673;51.058;3.734;2023-06-26T01:34:25;9.05;;;5.00;;
57842;SDS011;43673;51.058;3.734;2023-06-26T01:36:52;7.55;;;4.88;;
57842;SDS011;43673;51.058;3.734;2023-06-26T01:39:20;10.13;;;5.47;;
57842;SDS011;43673;51.058;3.734;2023-06-26T01:42:09;11.25;;;5.18;;
57842;SDS011;43673;51.058;3.734;2023-06-26T01:44:55;11.20;;;4.82;;
57842;SDS011;43673;51.058;3.734;2023-06-26T01:47:36;11.82;;;6.30;;
57842;SDS011;43673;51.058;3.734;2023-06-26T01:50:22;15.73;;;6.00;;
57842;SDS011;43673;51.058;3.734;2023-06-26T01:59:39;12.07;;;6.35;;
57842;SDS011;43673;51.058;3.734;2023-06-26T02:02:18;12.65;;;5.95;;
57842;SDS011;43673;51.058;3.734;2023-06-26T02:05:02;12.27;;;5.93;;
57842;SDS011;43673;51.058;3.734;2023-06-26T02:07:28;17.65;;;6.00;;
57842;SDS011;43673;51.058;3.734;2023-06-26T02:09:57;20.67;;;6.25;;
57842;SDS011;43673;51.058;3.734;2023-06-26T02:12:38;14.75;;;6.38;;
57842;SDS011;43673;51.058;3.734;2023-06-26T02:17:54;12.23;;;5.35;;
57842;SDS011;43673;51.058;3.734;2023-06-26T02:20:20;16.35;;;7.75;;
57842;SDS011;43673;51.058;3.734;2023-06-26T02:22:46;10.23;;;5.72;;
57842;SDS011;43673;51.058;3.734;2023-06-26T02:25:14;15.20;;;7.40;;
57842;SDS011;43673;51.058;3.734;2023-06-26T02:27:41;18.27;;;6.78;;
57842;SDS011;43673;51.058;3.734;2023-06-26T02:30:10;11.27;;;5.60;;
57842;SDS011;43673;51.058;3.734;2023-06-26T02:32:36;15.65;;;5.97;;
57842;SDS011;43673;51.058;3.734;2023-06-26T02:35:08;12.85;;;6.05;;
57842;SDS011;43673;51.058;3.734;2023-06-26T02:37:36;10.85;;;6.53;;
57842;SDS011;43673;51.058;3.734;2023-06-26T02:40:02;13.82;;;6.10;;
57842;SDS011;43673;51.058;3.734;2023-06-26T02:42:31;15.65;;;6.50;;
57842;SDS011;43673;51.058;3.734;2023-06-26T02:45:00;20.92;;;6.68;;
57842;SDS011;43673;51.058;3.734;2023-06-26T02:47:28;19.00;;;6.00;;
57842;SDS011;43673;51.058;3.734;2023-06-26T02:55:19;17.45;;;7.22;;
57842;SDS011;43673;51.058;3.734;2023-06-26T02:57:49;24.40;;;7.00;;
57842;SDS011;43673;51.058;3.734;2023-06-26T03:00:17;17.50;;;6.60;;
57842;SDS011;43673;51.058;3.734;2023-06-26T03:05:53;18.60;;;6.32;;
57842;SDS011;43673;51.058;3.734;2023-06-26T03:11:15;24.48;;;7.07;;
57842;SDS011;43673;51.058;3.734;2023-06-26T03:13:41;15.18;;;7.25;;
57842;SDS011;43673;51.058;3.734;2023-06-26T03:16:07;13.70;;;7.20;;
57842;SDS011;43673;51.058;3.734;2023-06-26T03:18:32;16.98;;;6.47;;
57842;SDS011;43673;51.058;3.734;2023-06-26T03:20:58;17.17;;;6.90;;
57842;SDS011;43673;51.058;3.734;2023-06-26T03:23:24;17.27;;;6.68;;
57842;SDS011;43673;51.058;3.734;2023-06-26T03:25:50;18.50;;;6.50;;
57842;SDS011;43673;51.058;3.734;2023-06-26T03:28:16;15.73;;;6.35;;
57842;SDS011;43673;51.058;3.734;2023-06-26T03:30:42;15.85;;;6.70;;
57842;SDS011;43673;51.058;3.734;2023-06-26T03:33:08;20.60;;;7.47;;
57842;SDS011;43673;51.058;3.734;2023-06-26T03:35:34;14.25;;;6.63;;
57842;SDS011;43673;51.058;3.734;2023-06-26T03:37:59;20.15;;;7.85;;
57842;SDS011;43673;51.058;3.734;2023-06-26T03:40:26;22.15;;;7.32;;
57842;SDS011;43673;51.058;3.734;2023-06-26T03:42:52;19.60;;;7.35;;
57842;SDS011;43673;51.058;3.734;2023-06-26T03:45:17;17.67;;;6.88;;
57842;SDS011;43673;51.058;3.734;2023-06-26T03:47:44;21.10;;;6.40;;
57842;SDS011;43673;51.058;3.734;2023-06-26T03:50:12;13.27;;;6.03;;
57842;SDS011;43673;51.058;3.734;2023-06-26T03:52:38;18.48;;;6.60;;
57842;SDS011;43673;51.058;3.734;2023-06-26T03:55:03;19.23;;;5.72;;
57842;SDS011;43673;51.058;3.734;2023-06-26T03:57:29;14.20;;;6.35;;
57842;SDS011;43673;51.058;3.734;2023-06-26T03:59:55;16.13;;;5.72;;
57842;SDS011;43673;51.058;3.734;2023-06-26T04:02:21;18.90;;;5.70;;
57842;SDS011;43673;51.058;3.734;2023-06-26T04:04:47;17.23;;;6.68;;
57842;SDS011;43673;51.058;3.734;2023-06-26T04:07:13;7.63;;;4.70;;
57842;SDS011;43673;51.058;3.734;2023-06-26T04:09:39;16.83;;;6.28;;
57842;SDS011;43673;51.058;3.734;2023-06-26T04:12:05;14.98;;;5.43;;
57842;SDS011;43673;51.058;3.734;2023-06-26T04:14:31;16.60;;;5.97;;
57842;SDS011;43673;51.058;3.734;2023-06-26T04:16:57;15.68;;;5.03;;
57842;SDS011;43673;51.058;3.734;2023-06-26T04:19:23;16.98;;;5.28;;
57842;SDS011;43673;51.058;3.734;2023-06-26T04:21:49;14.85;;;4.90;;
57842;SDS011;43673;51.058;3.734;2023-06-26T04:24:15;16.75;;;5.68;;
57842;SDS011;43673;51.058;3.734;2023-06-26T04:26:40;13.45;;;5.53;;
57842;SDS011;43673;51.058;3.734;2023-06-26T04:29:06;11.00;;;4.93;;
57842;SDS011;43673;51.058;3.734;2023-06-26T04:31:32;14.32;;;5.03;;
57842;SDS011;43673;51.058;3.734;2023-06-26T04:33:58;14.32;;;5.85;;
57842;SDS011;43673;51.058;3.734;2023-06-26T04:36:24;13.57;;;4.90;;
57842;SDS011;43673;51.058;3.734;2023-06-26T04:38:53;17.30;;;5.45;;
57842;SDS011;43673;51.058;3.734;2023-06-26T04:41:19;13.57;;;5.15;;
57842;SDS011;43673;51.058;3.734;2023-06-26T04:43:45;15.77;;;5.43;;
57842;SDS011;43673;51.058;3.734;2023-06-26T04:46:11;15.60;;;4.85;;
57842;SDS011;43673;51.058;3.734;2023-06-26T04:48:36;11.93;;;4.68;;
57842;SDS011;43673;51.058;3.734;2023-06-26T04:51:02;12.13;;;4.15;;
57842;SDS011;43673;51.058;3.734;2023-06-26T04:53:28;10.30;;;4.35;;
57842;SDS011;43673;51.058;3.734;2023-06-26T04:55:54;12.35;;;4.32;;
57842;SDS011;43673;51.058;3.734;2023-06-26T04:58:20;15.52;;;4.70;;
57842;SDS011;43673;51.058;3.734;2023-06-26T05:00:46;11.82;;;4.05;;
57842;SDS011;43673;51.058;3.734;2023-06-26T05:03:12;9.20;;;4.35;;
57842;SDS011;43673;51.058;3.734;2023-06-26T05:05:39;11.88;;;4.28;;
57842;SDS011;43673;51.058;3.734;2023-06-26T05:08:24;10.38;;;3.95;;
57842;SDS011;43673;51.058;3.734;2023-06-26T05:10:53;14.55;;;4.43;;
57842;SDS011;43673;51.058;3.734;2023-06-26T05:13:23;14.02;;;4.22;;
57842;SDS011;43673;51.058;3.734;2023-06-26T05:15:52;12.95;;;3.97;;
57842;SDS011;43673;51.058;3.734;2023-06-26T05:18:18;12.57;;;4.93;;
57842;SDS011;43673;51.058;3.734;2023-06-26T05:20:45;10.85;;;4.30;;
57842;SDS011;43673;51.058;3.734;2023-06-26T05:23:11;12.38;;;4.45;;
57842;SDS011;43673;51.058;3.734;2023-06-26T05:25:38;10.00;;;3.65;;
57842;SDS011;43673;51.058;3.734;2023-06-26T05:28:04;9.50;;;3.83;;
57842;SDS011;43673;51.058;3.734;2023-06-26T05:30:30;7.88;;;3.63;;
57842;SDS011;43673;51.058;3.734;2023-06-26T05:32:59;9.82;;;4.72;;
57842;SDS011;43673;51.058;3.734;2023-06-26T05:35:28;7.07;;;3.42;;
57842;SDS011;43673;51.058;3.734;2023-06-26T05:37:55;15.27;;;3.80;;
57842;SDS011;43673;51.058;3.734;2023-06-26T05:40:22;6.40;;;3.25;;
57842;SDS011;43673;51.058;3.734;2023-06-26T05:42:48;6.88;;;2.75;;
57842;SDS011;43673;51.058;3.734;2023-06-26T05:45:15;12.10;;;3.83;;
57842;SDS011;43673;51.058;3.734;2023-06-26T05:47:41;5.82;;;2.80;;
57842;SDS011;43673;51.058;3.734;2023-06-26T05:50:08;8.20;;;3.00;;
57842;SDS011;43673;51.058;3.734;2023-06-26T05:52:35;6.75;;;3.50;;
57842;SDS011;43673;51.058;3.734;2023-06-26T05:55:01;9.35;;;3.33;;
57842;SDS011;43673;51.058;3.734;2023-06-26T05:57:28;8.88;;;3.70;;
57842;SDS011;43673;51.058;3.734;2023-06-26T05:59:55;5.05;;;2.78;;
57842;SDS011;43673;51.058;3.734;2023-06-26T06:02:21;6.55;;;2.95;;
57842;SDS011;43673;51.058;3.734;2023-06-26T06:04:47;8.85;;;2.97;;
57842;SDS011;43673;51.058;3.734;2023-06-26T06:07:13;7.40;;;2.60;;
57842;SDS011;43673;51.058;3.734;2023-06-26T06:09:39;5.70;;;2.45;;
57842;SDS011;43673;51.058;3.734;2023-06-26T06:12:05;7.97;;;2.63;;
57842;SDS011;43673;51.058;3.734;2023-06-26T06:14:33;4.65;;;2.38;;
57842;SDS011;43673;51.058;3.734;2023-06-26T06:16:59;4.65;;;2.28;;
57842;SDS011;43673;51.058;3.734;2023-06-26T06:19:25;6.43;;;2.58;;
57842;SDS011;43673;51.058;3.734;2023-06-26T06:21:50;6.28;;;2.50;;
57842;SDS011;43673;51.058;3.734;2023-06-26T06:24:16;6.90;;;3.03;;
57842;SDS011;43673;51.058;3.734;2023-06-26T06:26:42;5.03;;;2.53;;
57842;SDS011;43673;51.058;3.734;2023-06-26T06:29:08;6.60;;;2.97;;
57842;SDS011;43673;51.058;3.734;2023-06-26T06:31:34;6.68;;;2.28;;
57842;SDS011;43673;51.058;3.734;2023-06-26T06:33:59;7.03;;;3.22;;
57842;SDS011;43673;51.058;3.734;2023-06-26T06:36:25;9.00;;;3.47;;
57842;SDS011;43673;51.058;3.734;2023-06-26T06:38:51;9.20;;;2.33;;
57842;SDS011;43673;51.058;3.734;2023-06-26T06:41:16;8.30;;;2.50;;
57842;SDS011;43673;51.058;3.734;2023-06-26T06:43:44;3.53;;;1.88;;
57842;SDS011;43673;51.058;3.734;2023-06-26T06:46:10;5.93;;;2.30;;
57842;SDS011;43673;51.058;3.734;2023-06-26T06:48:36;7.68;;;2.60;;
57842;SDS011;43673;51.058;3.734;2023-06-26T06:51:01;6.68;;;2.33;;
57842;SDS011;43673;51.058;3.734;2023-06-26T06:53:27;5.13;;;2.05;;
57842;SDS011;43673;51.058;3.734;2023-06-26T06:55:53;7.85;;;2.20;;
57842;SDS011;43673;51.058;3.734;2023-06-26T06:58:19;6.25;;;2.50;;
57842;SDS011;43673;51.058;3.734;2023-06-26T07:00:45;6.97;;;2.33;;
57842;SDS011;43673;51.058;3.734;2023-06-26T07:03:11;7.18;;;2.35;;
57842;SDS011;43673;51.058;3.734;2023-06-26T07:05:37;4.53;;;2.42;;
57842;SDS011;43673;51.058;3.734;2023-06-26T07:08:03;7.30;;;2.10;;
57842;SDS011;43673;51.058;3.734;2023-06-26T07:10:29;6.40;;;2.08;;
57842;SDS011;43673;51.058;3.734;2023-06-26T07:12:55;6.75;;;1.88;;
57842;SDS011;43673;51.058;3.734;2023-06-26T07:15:21;5.55;;;3.00;;
57842;SDS011;43673;51.058;3.734;2023-06-26T07:17:47;7.38;;;2.97;;
57842;SDS011;43673;51.058;3.734;2023-06-26T07:20:13;4.10;;;2.70;;
57842;SDS011;43673;51.058;3.734;2023-06-26T07:22:41;5.85;;;3.08;;
57842;SDS011;43673;51.058;3.734;2023-06-26T07:25:07;5.80;;;2.88;;
57842;SDS011;43673;51.058;3.734;2023-06-26T07:27:34;7.53;;;2.78;;
57842;SDS011;43673;51.058;3.734;2023-06-26T07:30:01;9.13;;;6.22;;
57842;SDS011;43673;51.058;3.734;2023-06-26T07:32:26;4.93;;;2.45;;
57842;SDS011;43673;51.058;3.734;2023-06-26T07:34:52;7.00;;;2.40;;
57842;SDS011;43673;51.058;3.734;2023-06-26T07:37:18;6.78;;;2.38;;
57842;SDS011;43673;51.058;3.734;2023-06-26T07:39:44;4.18;;;1.90;;
57842;SDS011;43673;51.058;3.734;2023-06-26T07:42:09;6.43;;;2.58;;
57842;SDS011;43673;51.058;3.734;2023-06-26T07:44:35;5.30;;;2.40;;
57842;SDS011;43673;51.058;3.734;2023-06-26T07:47:01;9.13;;;3.25;;
57842;SDS011;43673;51.058;3.734;2023-06-26T07:49:27;5.93;;;2.22;;
57842;SDS011;43673;51.058;3.734;2023-06-26T07:51:53;4.07;;;2.10;;
57842;SDS011;43673;51.058;3.734;2023-06-26T07:54:19;3.08;;;1.67;;
57842;SDS011;43673;51.058;3.734;2023-06-26T07:57:01;6.97;;;2.47;;
57842;SDS011;43673;51.058;3.734;2023-06-26T07:59:28;6.40;;;3.40;;
57842;SDS011;43673;51.058;3.734;2023-06-26T08:01:56;3.88;;;2.10;;
57842;SDS011;43673;51.058;3.734;2023-06-26T08:04:23;2.28;;;2.00;;
57842;SDS011;43673;51.058;3.734;2023-06-26T08:06:51;5.55;;;2.45;;
57842;SDS011;43673;51.058;3.734;2023-06-26T08:09:19;7.50;;;2.42;;
57842;SDS011;43673;51.058;3.734;2023-06-26T08:11:46;4.90;;;2.42;;
57842;SDS011;43673;51.058;3.734;2023-06-26T08:14:12;3.95;;;2.33;;
57842;SDS011;43673;51.058;3.734;2023-06-26T08:16:38;8.48;;;2.65;;
57842;SDS011;43673;51.058;3.734;2023-06-26T08:19:04;5.97;;;1.80;;
57842;SDS011;43673;51.058;3.734;2023-06-26T08:21:30;2.80;;;1.63;;
57842;SDS011;43673;51.058;3.734;2023-06-26T08:23:58;6.38;;;2.03;;
57842;SDS011;43673;51.058;3.734;2023-06-26T08:26:24;5.70;;;2.13;;
57842;SDS011;43673;51.058;3.734;2023-06-26T08:28:49;2.78;;;1.65;;
57842;SDS011;43673;51.058;3.734;2023-06-26T08:31:15;3.90;;;2.70;;
57842;SDS011;43673;51.058;3.734;2023-06-26T08:33:42;6.95;;;2.33;;
57842;SDS011;43673;51.058;3.734;2023-06-26T08:36:07;6.85;;;3.13;;
57842;SDS011;43673;51.058;3.734;2023-06-26T08:38:33;4.10;;;2.30;;
57842;SDS011;43673;51.058;3.734;2023-06-26T08:40:59;4.05;;;1.90;;
57842;SDS011;43673;51.058;3.734;2023-06-26T08:43:25;3.72;;;1.63;;
57842;SDS011;43673;51.058;3.734;2023-06-26T08:45:52;4.03;;;2.00;;
57842;SDS011;43673;51.058;3.734;2023-06-26T08:48:18;5.15;;;2.20;;
57842;SDS011;43673;51.058;3.734;2023-06-26T08:50:47;4.35;;;1.92;;
57842;SDS011;43673;51.058;3.734;2023-06-26T08:53:27;5.28;;;2.03;;
57842;SDS011;43673;51.058;3.734;2023-06-26T08:55:57;5.80;;;1.88;;
57842;SDS011;43673;51.058;3.734;2023-06-26T08:58:24;7.05;;;2.88;;
57842;SDS011;43673;51.058;3.734;2023-06-26T09:00:49;7.82;;;3.20;;
57842;SDS011;43673;51.058;3.734;2023-06-26T09:03:16;4.82;;;2.00;;
57842;SDS011;43673;51.058;3.734;2023-06-26T09:05:42;3.15;;;2.03;;
57842;SDS011;43673;51.058;3.734;2023-06-26T09:08:08;5.25;;;1.60;;
57842;SDS011;43673;51.058;3.734;2023-06-26T09:10:34;3.42;;;2.20;;
57842;SDS011;43673;51.058;3.734;2023-06-26T09:12:59;5.25;;;3.13;;
57842;SDS011;43673;51.058;3.734;2023-06-26T09:15:36;6.43;;;2.08;;
57842;SDS011;43673;51.058;3.734;2023-06-26T09:18:11;3.50;;;1.90;;
57842;SDS011;43673;51.058;3.734;2023-06-26T09:20:38;6.55;;;2.25;;
57842;SDS011;43673;51.058;3.734;2023-06-26T09:23:03;3.03;;;1.70;;
57842;SDS011;43673;51.058;3.734;2023-06-26T09:25:29;8.98;;;2.35;;
57842;SDS011;43673;51.058;3.734;2023-06-26T09:27:56;3.05;;;1.80;;
57842;SDS011;43673;51.058;3.734;2023-06-26T09:30:21;5.15;;;1.92;;
57842;SDS011;43673;51.058;3.734;2023-06-26T09:32:47;3.78;;;1.90;;
57842;SDS011;43673;51.058;3.734;2023-06-26T09:35:15;7.53;;;2.08;;
57842;SDS011;43673;51.058;3.734;2023-06-26T09:37:41;6.63;;;2.10;;
57842;SDS011;43673;51.058;3.734;2023-06-26T09:40:08;7.60;;;2.25;;
57842;SDS011;43673;51.058;3.734;2023-06-26T09:42:34;5.78;;;2.10;;
57842;SDS011;43673;51.058;3.734;2023-06-26T09:45:01;7.20;;;2.08;;
57842;SDS011;43673;51.058;3.734;2023-06-26T09:47:29;4.82;;;1.98;;
57842;SDS011;43673;51.058;3.734;2023-06-26T09:49:56;6.10;;;2.03;;
57842;SDS011;43673;51.058;3.734;2023-06-26T09:52:21;3.60;;;2.17;;
57842;SDS011;43673;51.058;3.734;2023-06-26T09:54:52;4.35;;;2.25;;
57842;SDS011;43673;51.058;3.734;2023-06-26T09:57:34;3.45;;;1.83;;
57842;SDS011;43673;51.058;3.734;2023-06-26T10:00:00;3.70;;;2.08;;
57842;SDS011;43673;51.058;3.734;2023-06-26T10:02:27;5.10;;;2.00;;
57842;SDS011;43673;51.058;3.734;2023-06-26T10:04:52;5.28;;;1.70;;
57842;SDS011;43673;51.058;3.734;2023-06-26T10:07:18;8.10;;;1.73;;
57842;SDS011;43673;51.058;3.734;2023-06-26T10:09:45;3.85;;;2.03;;
57842;SDS011;43673;51.058;3.734;2023-06-26T10:12:48;3.80;;;1.92;;
57842;SDS011;43673;51.058;3.734;2023-06-26T10:15:07;4.95;;;2.25;;
57842;SDS011;43673;51.058;3.734;2023-06-26T10:17:37;7.15;;;3.28;;
57842;SDS011;43673;51.058;3.734;2023-06-26T10:20:07;5.90;;;2.42;;
57842;SDS011;43673;51.058;3.734;2023-06-26T10:22:36;3.33;;;2.15;;
57842;SDS011;43673;51.058;3.734;2023-06-26T10:25:22;3.85;;;2.30;;
57842;SDS011;43673;51.058;3.734;2023-06-26T10:27:55;3.45;;;2.05;;
57842;SDS011;43673;51.058;3.734;2023-06-26T10:30:25;3.33;;;2.22;;
57842;SDS011;43673;51.058;3.734;2023-06-26T10:32:54;3.67;;;1.77;;
57842;SDS011;43673;51.058;3.734;2023-06-26T10:35:20;5.47;;;2.08;;
57842;SDS011;43673;51.058;3.734;2023-06-26T10:37:47;5.18;;;2.55;;
57842;SDS011;43673;51.058;3.734;2023-06-26T10:40:20;2.42;;;2.22;;
57842;SDS011;43673;51.058;3.734;2023-06-26T10:42:47;4.07;;;2.00;;
57842;SDS011;43673;51.058;3.734;2023-06-26T10:45:13;6.80;;;2.70;;
57842;SDS011;43673;51.058;3.734;2023-06-26T10:47:41;4.18;;;1.77;;
57842;SDS011;43673;51.058;3.734;2023-06-26T10:50:17;2.13;;;1.90;;
57842;SDS011;43673;51.058;3.734;2023-06-26T10:55:42;3.78;;;1.90;;
57842;SDS011;43673;51.058;3.734;2023-06-26T11:01:19;5.78;;;2.50;;
57842;SDS011;43673;51.058;3.734;2023-06-26T11:03:49;4.93;;;2.20;;
57842;SDS011;43673;51.058;3.734;2023-06-26T11:06:28;6.00;;;2.10;;
57842;SDS011;43673;51.058;3.734;2023-06-26T11:09:00;4.40;;;2.55;;
57842;SDS011;43673;51.058;3.734;2023-06-26T11:14:16;3.28;;;2.00;;
57842;SDS011;43673;51.058;3.734;2023-06-26T11:16:43;4.07;;;1.80;;
57842;SDS011;43673;51.058;3.734;2023-06-26T11:19:10;3.95;;;2.22;;
57842;SDS011;43673;51.058;3.734;2023-06-26T11:21:39;4.38;;;1.92;;
57842;SDS011;43673;51.058;3.734;2023-06-26T11:24:09;4.28;;;2.20;;
57842;SDS011;43673;51.058;3.734;2023-06-26T11:26:40;5.03;;;1.90;;
57842;SDS011;43673;51.058;3.734;2023-06-26T11:29:07;2.30;;;2.08;;
57842;SDS011;43673;51.058;3.734;2023-06-26T11:31:34;6.15;;;2.03;;
57842;SDS011;43673;51.058;3.734;2023-06-26T11:34:04;4.30;;;2.30;;
57842;SDS011;43673;51.058;3.734;2023-06-26T11:36:40;2.58;;;1.85;;
57842;SDS011;43673;51.058;3.734;2023-06-26T11:39:07;6.32;;;2.30;;
57842;SDS011;43673;51.058;3.734;2023-06-26T11:41:37;2.55;;;1.80;;
57842;SDS011;43673;51.058;3.734;2023-06-26T11:44:05;3.63;;;2.00;;
57842;SDS011;43673;51.058;3.734;2023-06-26T11:46:33;4.60;;;2.17;;
57842;SDS011;43673;51.058;3.734;2023-06-26T11:49:04;5.20;;;1.63;;
57842;SDS011;43673;51.058;3.734;2023-06-26T11:51:30;6.13;;;1.70;;
57842;SDS011;43673;51.058;3.734;2023-06-26T11:53:56;3.75;;;2.05;;
57842;SDS011;43673;51.058;3.734;2023-06-26T11:56:22;5.50;;;1.80;;
57842;SDS011;43673;51.058;3.734;2023-06-26T11:59:01;4.57;;;2.05;;
57842;SDS011;43673;51.058;3.734;2023-06-26T12:01:35;3.15;;;2.08;;
57842;SDS011;43673;51.058;3.734;2023-06-26T12:04:07;2.72;;;2.22;;
57842;SDS011;43673;51.058;3.734;2023-06-26T12:06:34;2.30;;;2.10;;
57842;SDS011;43673;51.058;3.734;2023-06-26T12:09:02;6.95;;;2.10;;
57842;SDS011;43673;51.058;3.734;2023-06-26T12:11:30;5.22;;;2.17;;
57842;SDS011;43673;51.058;3.734;2023-06-26T12:13:58;6.85;;;2.70;;
57842;SDS011;43673;51.058;3.734;2023-06-26T12:16:24;6.95;;;2.40;;
57842;SDS011;43673;51.058;3.734;2023-06-26T12:18:50;9.02;;;2.22;;
57842;SDS011;43673;51.058;3.734;2023-06-26T12:24:10;4.80;;;2.33;;
57842;SDS011;43673;51.058;3.734;2023-06-26T12:26:43;4.13;;;2.90;;
57842;SDS011;43673;51.058;3.734;2023-06-26T12:29:10;3.20;;;1.83;;
57842;SDS011;43673;51.058;3.734;2023-06-26T12:31:44;2.90;;;2.00;;
57842;SDS011;43673;51.058;3.734;2023-06-26T12:34:14;5.47;;;2.00;;
57842;SDS011;43673;51.058;3.734;2023-06-26T12:36:49;4.20;;;2.28;;
57842;SDS011;43673;51.058;3.734;2023-06-26T12:39:17;2.30;;;1.90;;
57842;SDS011;43673;51.058;3.734;2023-06-26T12:41:53;6.03;;;2.63;;
57842;SDS011;43673;51.058;3.734;2023-06-26T12:44:25;8.80;;;2.67;;
57842;SDS011;43673;51.058;3.734;2023-06-26T12:46:54;7.45;;;2.75;;
57842;SDS011;43673;51.058;3.734;2023-06-26T12:49:30;7.15;;;2.50;;
57842;SDS011;43673;51.058;3.734;2023-06-26T12:52:01;6.28;;;2.40;;
57842;SDS011;43673;51.058;3.734;2023-06-26T12:54:32;3.17;;;1.85;;
57842;SDS011;43673;51.058;3.734;2023-06-26T12:56:59;5.05;;;1.70;;
57842;SDS011;43673;51.058;3.734;2023-06-26T12:59:24;2.53;;;1.70;;
57842;SDS011;43673;51.058;3.734;2023-06-26T13:01:50;3.72;;;2.28;;
57842;SDS011;43673;51.058;3.734;2023-06-26T13:04:16;9.00;;;2.20;;
57842;SDS011;43673;51.058;3.734;2023-06-26T13:06:42;4.80;;;2.28;;
57842;SDS011;43673;51.058;3.734;2023-06-26T13:09:07;6.15;;;1.90;;
57842;SDS011;43673;51.058;3.734;2023-06-26T13:11:34;3.60;;;2.10;;
57842;SDS011;43673;51.058;3.734;2023-06-26T13:14:01;5.40;;;2.08;;
57842;SDS011;43673;51.058;3.734;2023-06-26T13:16:28;4.03;;;1.65;;
57842;SDS011;43673;51.058;3.734;2023-06-26T13:18:54;3.40;;;1.88;;
57842;SDS011;43673;51.058;3.734;2023-06-26T13:21:21;3.88;;;2.15;;
57842;SDS011;43673;51.058;3.734;2023-06-26T13:23:47;6.00;;;2.22;;
57842;SDS011;43673;51.058;3.734;2023-06-26T13:26:12;3.67;;;1.95;;
57842;SDS011;43673;51.058;3.734;2023-06-26T13:28:38;13.32;;;2.33;;
57842;SDS011;43673;51.058;3.734;2023-06-26T13:31:04;5.18;;;2.00;;
57842;SDS011;43673;51.058;3.734;2023-06-26T13:33:30;5.90;;;2.35;;
57842;SDS011;43673;51.058;3.734;2023-06-26T13:35:56;2.50;;;1.60;;
57842;SDS011;43673;51.058;3.734;2023-06-26T13:38:25;2.80;;;1.80;;
57842;SDS011;43673;51.058;3.734;2023-06-26T13:40:54;5.40;;;2.53;;
57842;SDS011;43673;51.058;3.734;2023-06-26T13:43:22;2.75;;;1.70;;
57842;SDS011;43673;51.058;3.734;2023-06-26T13:45:51;6.13;;;2.22;;
57842;SDS011;43673;51.058;3.734;2023-06-26T13:48:17;4.20;;;1.70;;
57842;SDS011;43673;51.058;3.734;2023-06-26T13:50:43;1.88;;;1.73;;
57842;SDS011;43673;51.058;3.734;2023-06-26T13:53:08;4.75;;;1.67;;
57842;SDS011;43673;51.058;3.734;2023-06-26T13:55:34;9.00;;;2.22;;
57842;SDS011;43673;51.058;3.734;2023-06-26T13:58:00;3.60;;;1.88;;
57842;SDS011;43673;51.058;3.734;2023-06-26T14:00:30;5.32;;;2.13;;
57842;SDS011;43673;51.058;3.734;2023-06-26T14:02:58;4.25;;;1.75;;
57842;SDS011;43673;51.058;3.734;2023-06-26T14:05:31;3.28;;;2.25;;
57842;SDS011;43673;51.058;3.734;2023-06-26T14:07:57;5.05;;;1.88;;
57842;SDS011;43673;51.058;3.734;2023-06-26T14:10:23;4.03;;;1.70;;
57842;SDS011;43673;51.058;3.734;2023-06-26T14:12:49;3.50;;;1.55;;
57842;SDS011;43673;51.058;3.734;2023-06-26T14:15:16;5.85;;;2.60;;
57842;SDS011;43673;51.058;3.734;2023-06-26T14:17:42;4.60;;;1.75;;
57842;SDS011;43673;51.058;3.734;2023-06-26T14:20:08;2.90;;;1.80;;
57842;SDS011;43673;51.058;3.734;2023-06-26T14:22:41;5.35;;;1.85;;
57842;SDS011;43673;51.058;3.734;2023-06-26T14:25:08;5.07;;;2.90;;
57842;SDS011;43673;51.058;3.734;2023-06-26T14:27:34;4.35;;;2.15;;
57842;SDS011;43673;51.058;3.734;2023-06-26T14:30:00;10.45;;;2.88;;
57842;SDS011;43673;51.058;3.734;2023-06-26T14:32:27;4.75;;;2.17;;
57842;SDS011;43673;51.058;3.734;2023-06-26T14:34:53;7.60;;;2.08;;
57842;SDS011;43673;51.058;3.734;2023-06-26T14:37:24;3.33;;;2.10;;
57842;SDS011;43673;51.058;3.734;2023-06-26T14:39:51;2.78;;;1.98;;
57842;SDS011;43673;51.058;3.734;2023-06-26T14:42:16;3.92;;;2.38;;
57842;SDS011;43673;51.058;3.734;2023-06-26T14:44:42;4.18;;;2.40;;
57842;SDS011;43673;51.058;3.734;2023-06-26T14:47:08;5.10;;;2.35;;
57842;SDS011;43673;51.058;3.734;2023-06-26T14:49:33;4.90;;;2.05;;
57842;SDS011;43673;51.058;3.734;2023-06-26T14:51:59;5.00;;;2.10;;
57842;SDS011;43673;51.058;3.734;2023-06-26T14:54:25;3.17;;;1.80;;
57842;SDS011;43673;51.058;3.734;2023-06-26T14:56:51;3.58;;;1.90;;
57842;SDS011;43673;51.058;3.734;2023-06-26T14:59:16;5.70;;;1.77;;
57842;SDS011;43673;51.058;3.734;2023-06-26T15:01:42;5.13;;;1.98;;
57842;SDS011;43673;51.058;3.734;2023-06-26T15:04:08;5.15;;;2.10;;
57842;SDS011;43673;51.058;3.734;2023-06-26T15:06:35;4.40;;;2.55;;
57842;SDS011;43673;51.058;3.734;2023-06-26T15:09:00;5.70;;;2.88;;
57842;SDS011;43673;51.058;3.734;2023-06-26T15:11:27;4.18;;;2.10;;
57842;SDS011;43673;51.058;3.734;2023-06-26T15:13:54;3.40;;;2.47;;
57842;SDS011;43673;51.058;3.734;2023-06-26T15:16:21;3.13;;;1.80;;
57842;SDS011;43673;51.058;3.734;2023-06-26T15:18:47;3.45;;;1.90;;
57842;SDS011;43673;51.058;3.734;2023-06-26T15:21:13;3.33;;;1.80;;
57842;SDS011;43673;51.058;3.734;2023-06-26T15:23:38;2.88;;;1.45;;
57842;SDS011;43673;51.058;3.734;2023-06-26T15:26:04;2.00;;;1.63;;
57842;SDS011;43673;51.058;3.734;2023-06-26T15:28:30;7.70;;;2.10;;
57842;SDS011;43673;51.058;3.734;2023-06-26T15:30:56;4.53;;;2.05;;
57842;SDS011;43673;51.058;3.734;2023-06-26T15:33:21;3.30;;;1.60;;
57842;SDS011;43673;51.058;3.734;2023-06-26T15:35:47;3.28;;;1.77;;
57842;SDS011;43673;51.058;3.734;2023-06-26T15:38:13;4.88;;;1.90;;
57842;SDS011;43673;51.058;3.734;2023-06-26T15:40:38;4.57;;;1.75;;
57842;SDS011;43673;51.058;3.734;2023-06-26T15:43:04;1.98;;;1.75;;
57842;SDS011;43673;51.058;3.734;2023-06-26T15:45:30;2.92;;;2.13;;
57842;SDS011;43673;51.058;3.734;2023-06-26T15:47:56;5.20;;;2.08;;